Time;durP1;ratioP1;P1;durP2;ratioP2;P2;SDS_P1;SDS_P2;PMS_P1;PMS_P2;Temp;Humidity;BMP_temperature;BMP_pressure;BME280_temperature;BME280_humidity;BME280_pressure;Samples;Min_cycle;Max_cycle;Signal;HPM_P1;HPM_P2
2021/06/28 00:00:18;;;;;;;;;;;;;;;;;;5111546;27;19946;-67
2021/06/28 00:02:43;;;;;;;;;;;;;;;;;;5115532;27;19908;-68
2021/06/28 00:05:09;;;;;;;;;;;;;;;;;;5116536;27;19915;-67
2021/06/28 00:07:35;;;;;;;;;;;;;;;;;;5114692;27;19918;-70
2021/06/28 00:10:01;;;;;;;;;;;;;;;;;;5114391;27;19920;-68
2021/06/28 00:12:27;;;;;;;;;;;;;;;;;;5112805;27;19912;-67
2021/06/28 00:14:53;;;;;;;;;;;;;;;;;;5113773;27;19915;-67
2021/06/28 00:17:19;;;;;;;;;;;;;;;;;;5115089;27;20277;-67
2021/06/28 00:19:45;;;;;;;;;;;;;;;;;;5095738;28;20485;-68
2021/06/28 00:22:10;;;;;;;;;;;;;;;;;;5114613;27;19919;-68
2021/06/28 00:24:36;;;;;;;;;;;;;;;;;;5113447;27;20259;-67
2021/06/28 00:27:02;;;;;;;;;;;;;;;;;;5111138;27;19912;-67
2021/06/28 00:29:28;;;;;;;;;;;;;;;;;;5116716;27;19912;-67
2021/06/28 00:31:55;;;;;;;;;;;;;;;;;;5114221;27;19919;-67
2021/06/28 00:34:21;;;;;;;;;;;;;;;;;;5113813;27;19959;-67
2021/06/28 00:36:47;;;;;;;;;;;;;;;;;;5114240;27;19959;-68
2021/06/28 00:39:13;;;;;;;;;;;;;;;;;;5110128;27;19928;-68
2021/06/28 00:41:39;;;;;;;;;;;;;;;;;;5116438;27;19908;-68
2021/06/28 00:44:05;;;;;;;;;;;;;;;;;;5114055;27;19908;-68
2021/06/28 00:46:30;;;;;;;;;;;;;;;;;;5113507;27;19911;-67
2021/06/28 00:48:56;;;;;;;;;;;;;;;;;;5113281;27;19947;-68
2021/06/28 00:51:23;;;;;;;;;;;;;;;;;;5111436;27;19916;-67
2021/06/28 00:53:49;;;;;;;;;;;;;;;;;;5113752;27;19976;-67
2021/06/28 00:56:14;;;;;;;;;;;;;;;;;;5115104;27;20002;-68
2021/06/28 00:58:40;;;;;;;;;;;;;;;;;;5113776;27;19912;-68
2021/06/28 01:01:06;;;;;;;;;;;;;;;;;;5114872;27;19912;-68
2021/06/28 01:03:32;;;;;;;;;;;;;;;;;;5112562;27;19927;-68
2021/06/28 01:05:58;;;;;;;;;;;;;;;;;;5111680;28;19927;-68
2021/06/28 01:08:24;;;;;;;;;;;;;;;;;;5115629;27;19930;-68
2021/06/28 01:10:50;;;;;;;;;;;;;;;;;;5113386;28;19927;-68
2021/06/28 01:13:16;;;;;;;;;;;;;;;;;;5113385;28;19922;-68
2021/06/28 01:15:42;;;;;;;;;;;;;;;;;;5114046;28;19912;-68
2021/06/28 01:18:07;;;;;;;;;;;;;;;;;;5109168;28;20260;-67
2021/06/28 01:20:33;;;;;;;;;;;;;;;;;;5123946;28;19915;-68
2021/06/28 01:22:59;;;;;;;;;;;;;;;;;;5113639;28;19912;-68
2021/06/28 01:25:25;;;;;;;;;;;;;;;;;;5113263;28;20078;-67
2021/06/28 01:27:51;;;;;;;;;;;;;;;;;;5113531;28;20035;-68
2021/06/28 01:30:17;;;;;;;;;;;;;;;;;;5110160;28;19956;-68
2021/06/28 01:32:44;;;;;;;;;;;;;;;;;;5114631;28;19911;-68
2021/06/28 01:35:10;;;;;;;;;;;;;;;;;;5115157;28;19964;-68
2021/06/28 01:37:36;;;;;;;;;;;;;;;;;;5113437;28;19915;-68
2021/06/28 01:40:02;;;;;;;;;;;;;;;;;;5113452;28;19927;-68
2021/06/28 01:42:28;;;;;;;;;;;;;;;;;;5093453;28;19919;-67
2021/06/28 01:44:54;;;;;;;;;;;;;;;;;;5112164;28;19907;-68
2021/06/28 01:47:20;;;;;;;;;;;;;;;;;;5114739;28;19908;-67
2021/06/28 01:49:46;;;;;;;;;;;;;;;;;;5113052;28;19977;-67
2021/06/28 01:52:11;;;;;;;;;;;;;;;;;;5113283;28;19912;-69
2021/06/28 01:54:37;;;;;;;;;;;;;;;;;;5113072;28;19912;-68
2021/06/28 01:57:03;;;;;;;;;;;;;;;;;;5091619;28;19912;-68
2021/06/28 01:59:30;;;;;;;;;;;;;;;;;;5118269;27;20298;-68
2021/06/28 02:01:56;;;;;;;;;;;;;;;;;;5116778;27;19918;-60
2021/06/28 02:04:21;;;;;;;;;;;;;;;;;;5117243;27;19934;-61
2021/06/28 02:06:48;;;;;;;;;;;;;;;;;;5116981;27;19911;-60
2021/06/28 02:09:14;;;;;;;;;;;;;;;;;;5112732;27;20382;-60
2021/06/28 02:11:40;;;;;;;;;;;;;;;;;;5119137;27;19908;-60
2021/06/28 02:14:06;;;;;;;;;;;;;;;;;;5117237;27;20007;-61
2021/06/28 02:16:32;;;;;;;;;;;;;;;;;;5116605;27;19965;-60
2021/06/28 02:18:58;;;;;;;;;;;;;;;;;;5116693;27;20267;-60
2021/06/28 02:21:23;;;;;;;;;;;;;;;;;;5114418;27;19916;-60
2021/06/28 02:23:49;;;;;;;;;;;;;;;;;;5116723;27;20351;-60
2021/06/28 02:26:15;;;;;;;;;;;;;;;;;;5117330;27;19912;-60
2021/06/28 02:28:41;;;;;;;;;;;;;;;;;;5116604;27;19954;-60
2021/06/28 02:31:07;;;;;;;;;;;;;;;;;;5115905;27;19911;-60
2021/06/28 02:33:33;;;;;;;;;;;;;;;;;;5115810;27;19915;-60
2021/06/28 02:35:59;;;;;;;;;;;;;;;;;;5114110;27;19949;-60
2021/06/28 02:38:25;;;;;;;;;;;;;;;;;;5118110;27;19915;-60
2021/06/28 02:40:51;;;;;;;;;;;;;;;;;;5116265;27;19977;-60
2021/06/28 02:43:17;;;;;;;;;;;;;;;;;;5116218;27;19912;-60
2021/06/28 02:45:43;;;;;;;;;;;;;;;;;;5115631;27;19961;-60
2021/06/28 02:48:08;;;;;;;;;;;;;;;;;;5111660;28;19966;-60
2021/06/28 02:50:34;;;;;;;;;;;;;;;;;;5119458;27;19908;-60
2021/06/28 02:53:00;;;;;;;;;;;;;;;;;;5115433;27;20382;-60
2021/06/28 02:55:26;;;;;;;;;;;;;;;;;;5116004;27;19912;-60
2021/06/28 02:57:52;;;;;;;;;;;;;;;;;;5116222;27;19916;-60
2021/06/28 03:00:18;;;;;;;;;;;;;;;;;;5112193;27;19920;-60
2021/06/28 03:02:44;;;;;;;;;;;;;;;;;;5098367;28;20274;-60
2021/06/28 03:05:10;;;;;;;;;;;;;;;;;;5118181;27;20364;-60
2021/06/28 03:07:36;;;;;;;;;;;;;;;;;;5097553;28;19955;-60
2021/06/28 03:10:02;;;;;;;;;;;;;;;;;;5115076;27;19927;-60
2021/06/28 03:12:27;;;;;;;;;;;;;;;;;;5114036;27;19920;-60
2021/06/28 03:14:53;;;;;;;;;;;;;;;;;;5114386;27;19931;-60
2021/06/28 03:17:19;;;;;;;;;;;;;;;;;;5116736;27;19953;-61
2021/06/28 03:19:45;;;;;;;;;;;;;;;;;;5115430;27;19952;-60
2021/06/28 03:22:11;;;;;;;;;;;;;;;;;;5115335;27;19912;-60
2021/06/28 03:24:37;;;;;;;;;;;;;;;;;;5115163;27;20199;-60
2021/06/28 03:27:03;;;;;;;;;;;;;;;;;;5111919;27;19919;-60
2021/06/28 03:29:29;;;;;;;;;;;;;;;;;;5117557;27;19908;-60
2021/06/28 03:31:55;;;;;;;;;;;;;;;;;;5115076;27;19918;-60
2021/06/28 03:34:20;;;;;;;;;;;;;;;;;;5115275;27;19965;-60
2021/06/28 03:36:46;;;;;;;;;;;;;;;;;;5115499;27;19919;-60
2021/06/28 03:39:12;;;;;;;;;;;;;;;;;;5111443;27;19951;-60
2021/06/28 03:41:38;;;;;;;;;;;;;;;;;;5116891;27;20298;-60
2021/06/28 03:44:04;;;;;;;;;;;;;;;;;;5116535;27;19960;-60
2021/06/28 03:46:30;;;;;;;;;;;;;;;;;;5114978;27;19912;-60
2021/06/28 03:48:56;;;;;;;;;;;;;;;;;;5115132;27;19919;-60
2021/06/28 03:51:22;;;;;;;;;;;;;;;;;;5112645;27;20060;-60
2021/06/28 03:53:48;;;;;;;;;;;;;;;;;;5115094;27;19976;-62
2021/06/28 03:56:14;;;;;;;;;;;;;;;;;;5115596;27;19908;-62
2021/06/28 03:58:40;;;;;;;;;;;;;;;;;;5114574;27;20355;-62
2021/06/28 04:01:06;;;;;;;;;;;;;;;;;;5114757;27;19915;-62
2021/06/28 04:03:33;;;;;;;;;;;;;;;;;;5113318;27;19911;-62
2021/06/28 04:06:03;;;;;;;;;;;;;;;;;;5112348;27;20353;-62
2021/06/28 04:08:29;;;;;;;;;;;;;;;;;;5117278;27;19914;-62
2021/06/28 04:10:54;;;;;;;;;;;;;;;;;;5114782;27;19920;-62
2021/06/28 04:13:20;;;;;;;;;;;;;;;;;;5114419;27;20018;-62
2021/06/28 04:15:46;;;;;;;;;;;;;;;;;;5115296;27;19990;-62
2021/06/28 04:18:13;;;;;;;;;;;;;;;;;;5110517;28;19919;-62
2021/06/28 04:20:39;;;;;;;;;;;;;;;;;;5116762;27;19919;-66
2021/06/28 04:23:04;;;;;;;;;;;;;;;;;;5115484;27;19988;-68
2021/06/28 04:25:30;;;;;;;;;;;;;;;;;;5114290;27;19988;-68
2021/06/28 04:27:56;;;;;;;;;;;;;;;;;;5112897;27;20366;-67
2021/06/28 04:30:22;;;;;;;;;;;;;;;;;;5111391;27;19995;-68
2021/06/28 04:32:48;;;;;;;;;;;;;;;;;;5114523;27;20390;-68
2021/06/28 04:35:14;;;;;;;;;;;;;;;;;;5115303;27;19908;-68
2021/06/28 04:37:40;;;;;;;;;;;;;;;;;;5113916;27;19911;-68
2021/06/28 04:40:06;;;;;;;;;;;;;;;;;;5114221;27;19920;-68
2021/06/28 04:42:32;;;;;;;;;;;;;;;;;;5112349;27;20444;-68
2021/06/28 04:44:58;;;;;;;;;;;;;;;;;;5112321;28;19964;-68
2021/06/28 04:47:24;;;;;;;;;;;;;;;;;;5115915;27;19908;-68
2021/06/28 04:49:50;;;;;;;;;;;;;;;;;;5095166;28;19912;-68
2021/06/28 04:52:16;;;;;;;;;;;;;;;;;;5113881;27;19951;-68
2021/06/28 04:54:42;;;;;;;;;;;;;;;;;;5114360;27;19964;-68
2021/06/28 04:57:08;;;;;;;;;;;;;;;;;;5109145;28;19918;-69
2021/06/28 04:59:33;;;;;;;;;;;;;;;;;;5098990;28;19926;-68
2021/06/28 05:01:59;;;;;;;;;;;;;;;;;;5113508;27;19962;-68
2021/06/28 05:04:26;;;;;;;;;;;;;;;;;;5113819;28;20278;-69
2021/06/28 05:06:52;;;;;;;;;;;;;;;;;;5113829;27;19911;-68
2021/06/28 05:09:18;;;;;;;;;;;;;;;;;;5110307;28;19999;-68
2021/06/28 05:11:44;;;;;;;;;;;;;;;;;;5114869;28;19915;-67
2021/06/28 05:14:11;;;;;;;;;;;;;;;;;;5115654;28;19907;-67
2021/06/28 05:16:37;;;;;;;;;;;;;;;;;;5113958;28;20026;-66
2021/06/28 05:19:03;;;;;;;;;;;;;;;;;;5113699;28;19919;-68
2021/06/28 05:21:29;;;;;;;;;;;;;;;;;;5111614;28;20606;-67
2021/06/28 05:23:54;;;;;;;;;;;;;;;;;;5112314;28;19908;-68
2021/06/28 05:26:20;;;;;;;;;;;;;;;;;;5115007;28;20363;-68
2021/06/28 05:28:46;;;;;;;;;;;;;;;;;;5113465;28;19916;-68
2021/06/28 05:31:12;;;;;;;;;;;;;;;;;;5113528;28;19916;-67
2021/06/28 05:33:38;;;;;;;;;;;;;;;;;;5114819;27;19998;-67
2021/06/28 05:36:04;;;;;;;;;;;;;;;;;;5113845;27;20011;-67
2021/06/28 05:38:30;;;;;;;;;;;;;;;;;;5119994;27;20259;-67
2021/06/28 05:40:56;;;;;;;;;;;;;;;;;;5117495;27;19927;-67
2021/06/28 05:43:22;;;;;;;;;;;;;;;;;;5117466;27;19912;-67
2021/06/28 05:45:48;;;;;;;;;;;;;;;;;;5117294;27;20255;-67
2021/06/28 05:48:13;;;;;;;;;;;;;;;;;;5113481;27;19919;-68
2021/06/28 05:50:40;;;;;;;;;;;;;;;;;;5119347;27;19961;-73
2021/06/28 05:53:06;;;;;;;;;;;;;;;;;;5117212;27;20343;-65
2021/06/28 05:55:32;;;;;;;;;;;;;;;;;;5117305;27;19919;-64
2021/06/28 05:57:58;;;;;;;;;;;;;;;;;;5117192;27;19912;-67
2021/06/28 06:00:24;;;;;;;;;;;;;;;;;;5113623;27;19920;-66
2021/06/28 06:02:50;;;;;;;;;;;;;;;;;;5117248;27;19964;-66
2021/06/28 06:05:16;;;;;;;;;;;;;;;;;;5118253;27;19908;-66
2021/06/28 06:07:42;;;;;;;;;;;;;;;;;;5116552;27;19912;-67
2021/06/28 06:10:08;;;;;;;;;;;;;;;;;;5115592;27;19926;-66
2021/06/28 06:12:33;;;;;;;;;;;;;;;;;;5117432;27;20010;-66
2021/06/28 06:14:59;;;;;;;;;;;;;;;;;;5114390;27;19920;-66
2021/06/28 06:17:25;;;;;;;;;;;;;;;;;;5118904;27;19908;-67
2021/06/28 06:19:51;;;;;;;;;;;;;;;;;;5116122;27;20431;-67
2021/06/28 06:22:17;;;;;;;;;;;;;;;;;;5115552;27;19966;-66
2021/06/28 06:24:43;;;;;;;;;;;;;;;;;;5108047;27;19916;-67
2021/06/28 06:27:09;;;;;;;;;;;;;;;;;;5110411;28;19915;-67
2021/06/28 06:29:35;;;;;;;;;;;;;;;;;;5112080;27;19915;-66
2021/06/28 06:32:01;;;;;;;;;;;;;;;;;;5114256;27;19916;-66
2021/06/28 06:34:27;;;;;;;;;;;;;;;;;;5097056;28;19923;-66
2021/06/28 06:36:52;;;;;;;;;;;;;;;;;;5115066;27;19919;-66
2021/06/28 06:39:18;;;;;;;;;;;;;;;;;;5109525;27;20295;-66
2021/06/28 06:41:44;;;;;;;;;;;;;;;;;;5116272;27;19908;-66
2021/06/28 06:44:10;;;;;;;;;;;;;;;;;;5116078;27;19915;-66
2021/06/28 06:46:36;;;;;;;;;;;;;;;;;;5115032;27;19912;-66
2021/06/28 06:49:02;;;;;;;;;;;;;;;;;;5114562;27;19926;-66
2021/06/28 06:51:28;;;;;;;;;;;;;;;;;;5110967;27;20043;-67
2021/06/28 06:53:54;;;;;;;;;;;;;;;;;;5113027;27;20385;-66
2021/06/28 06:56:19;;;;;;;;;;;;;;;;;;5127106;27;19915;-66
2021/06/28 06:58:45;;;;;;;;;;;;;;;;;;5116856;27;19964;-66
2021/06/28 07:01:15;;;;;;;;;;;;;;;;;;5096310;28;19922;-66
2021/06/28 07:03:41;;;;;;;;;;;;;;;;;;5104925;27;19919;-67
2021/06/28 07:06:07;;;;;;;;;;;;;;;;;;5110124;28;19957;-65
2021/06/28 07:08:35;;;;;;;;;;;;;;;;;;5100842;28;19954;-62
2021/06/28 07:11:02;;;;;;;;;;;;;;;;;;5115556;27;19977;-63
2021/06/28 07:13:28;;;;;;;;;;;;;;;;;;5115437;27;19939;-65
2021/06/28 07:15:54;;;;;;;;;;;;;;;;;;5114663;27;19959;-65
2021/06/28 07:18:20;;;;;;;;;;;;;;;;;;5112494;27;19912;-65
2021/06/28 07:20:46;;;;;;;;;;;;;;;;;;5115776;27;19955;-64
2021/06/28 07:23:12;;;;;;;;;;;;;;;;;;5119317;27;19912;-65
2021/06/28 07:25:38;;;;;;;;;;;;;;;;;;5119646;27;19945;-64
2021/06/28 07:28:04;;;;;;;;;;;;;;;;;;5120629;27;19912;-64
2021/06/28 07:30:30;;;;;;;;;;;;;;;;;;5114029;27;20275;-64
2021/06/28 07:32:55;;;;;;;;;;;;;;;;;;5121721;27;19940;-64
2021/06/28 07:35:21;;;;;;;;;;;;;;;;;;5124503;27;19915;-65
2021/06/28 07:37:47;;;;;;;;;;;;;;;;;;5121869;27;19920;-64
2021/06/28 07:40:13;;;;;;;;;;;;;;;;;;5121895;27;19923;-64
2021/06/28 07:42:39;;;;;;;;;;;;;;;;;;5121706;27;19911;-65
2021/06/28 07:45:05;;;;;;;;;;;;;;;;;;5121181;27;19920;-65
2021/06/28 07:47:31;;;;;;;;;;;;;;;;;;5124844;27;19915;-64
2021/06/28 07:49:58;;;;;;;;;;;;;;;;;;5120533;27;20024;-64
2021/06/28 07:52:24;;;;;;;;;;;;;;;;;;5120846;27;19911;-64
2021/06/28 07:54:50;;;;;;;;;;;;;;;;;;5121172;27;19920;-64
2021/06/28 07:57:16;;;;;;;;;;;;;;;;;;5120379;27;19912;-64
2021/06/28 07:59:42;;;;;;;;;;;;;;;;;;5121369;27;20018;-64
2021/06/28 08:02:07;;;;;;;;;;;;;;;;;;5121758;27;20393;-64
2021/06/28 08:04:33;;;;;;;;;;;;;;;;;;5119319;27;19965;-64
2021/06/28 08:06:59;;;;;;;;;;;;;;;;;;5113584;27;20274;-64
2021/06/28 08:09:25;;;;;;;;;;;;;;;;;;5112446;27;19920;-64
2021/06/28 08:11:51;;;;;;;;;;;;;;;;;;5114696;27;20252;-64
2021/06/28 08:14:18;;;;;;;;;;;;;;;;;;5115023;27;19908;-64
2021/06/28 08:16:43;;;;;;;;;;;;;;;;;;5113883;27;19916;-64
2021/06/28 08:19:10;;;;;;;;;;;;;;;;;;5109169;27;19921;-64
2021/06/28 08:21:36;;;;;;;;;;;;;;;;;;5110558;27;19918;-65
2021/06/28 08:24:02;;;;;;;;;;;;;;;;;;5123653;27;19995;-65
2021/06/28 08:26:28;;;;;;;;;;;;;;;;;;5099619;28;20286;-63
2021/06/28 08:28:55;;;;;;;;;;;;;;;;;;5116451;27;19915;-63
2021/06/28 08:31:21;;;;;;;;;;;;;;;;;;5119327;27;19912;-65
2021/06/28 08:33:47;;;;;;;;;;;;;;;;;;5121668;27;19918;-63
2021/06/28 08:36:13;;;;;;;;;;;;;;;;;;5120237;27;19923;-65
2021/06/28 08:38:39;;;;;;;;;;;;;;;;;;5122922;27;20352;-64
2021/06/28 08:41:05;;;;;;;;;;;;;;;;;;5115025;27;20014;-65
2021/06/28 08:43:31;;;;;;;;;;;;;;;;;;5113672;27;19999;-65
2021/06/28 08:45:57;;;;;;;;;;;;;;;;;;5113358;27;19971;-65
2021/06/28 08:48:22;;;;;;;;;;;;;;;;;;5110714;27;19912;-64
2021/06/28 08:50:48;;;;;;;;;;;;;;;;;;5113745;27;19908;-65
2021/06/28 08:53:17;;;;;;;;;;;;;;;;;;5115697;27;19922;-65
2021/06/28 08:55:44;;;;;;;;;;;;;;;;;;5121997;27;20014;-63
2021/06/28 08:58:09;;;;;;;;;;;;;;;;;;5119101;27;19912;-65
2021/06/28 09:00:35;;;;;;;;;;;;;;;;;;5120004;27;19920;-64
2021/06/28 09:03:01;;;;;;;;;;;;;;;;;;5111287;28;20294;-64
2021/06/28 09:05:27;;;;;;;;;;;;;;;;;;5098475;28;19954;-64
2021/06/28 09:07:53;;;;;;;;;;;;;;;;;;5112147;28;19959;-64
2021/06/28 09:10:19;;;;;;;;;;;;;;;;;;5112854;28;19945;-64
2021/06/28 09:12:45;;;;;;;;;;;;;;;;;;5114675;28;19919;-65
2021/06/28 09:15:11;;;;;;;;;;;;;;;;;;5108518;28;19950;-64
2021/06/28 09:17:37;;;;;;;;;;;;;;;;;;5115917;28;19968;-64
2021/06/28 09:20:03;;;;;;;;;;;;;;;;;;5112791;28;20501;-65
2021/06/28 09:22:29;;;;;;;;;;;;;;;;;;5113066;28;20052;-64
2021/06/28 09:24:55;;;;;;;;;;;;;;;;;;5113191;28;19958;-65
2021/06/28 09:27:24;;;;;;;;;;;;;;;;;;5108586;28;19962;-64
2021/06/28 09:29:55;;;;;;;;;;;;;;;;;;5126654;28;19907;-65
2021/06/28 09:32:21;;;;;;;;;;;;;;;;;;5114622;28;20457;-64
2021/06/28 09:34:47;;;;;;;;;;;;;;;;;;5094659;28;19951;-65
2021/06/28 09:37:12;;;;;;;;;;;;;;;;;;5112133;28;19916;-65
2021/06/28 09:39:38;;;;;;;;;;;;;;;;;;5112702;28;20346;-64
2021/06/28 09:42:04;;;;;;;;;;;;;;;;;;5109467;28;20424;-65
2021/06/28 09:44:30;;;;;;;;;;;;;;;;;;5115894;28;19908;-64
2021/06/28 09:46:56;;;;;;;;;;;;;;;;;;5112544;28;20283;-65
2021/06/28 09:49:22;;;;;;;;;;;;;;;;;;5112553;28;19919;-65
2021/06/28 09:51:48;;;;;;;;;;;;;;;;;;5112753;28;19957;-63
2021/06/28 09:54:17;;;;;;;;;;;;;;;;;;5109041;28;19989;-65
2021/06/28 09:56:44;;;;;;;;;;;;;;;;;;5114683;28;19907;-65
2021/06/28 09:59:10;;;;;;;;;;;;;;;;;;5121743;28;20346;-65
2021/06/28 10:01:36;;;;;;;;;;;;;;;;;;5116361;28;19916;-65
2021/06/28 10:04:04;;;;;;;;;;;;;;;;;;5112600;28;19920;-76
2021/06/28 10:06:32;;;;;;;;;;;;;;;;;;5111681;28;19919;-76
2021/06/28 10:08:58;;;;;;;;;;;;;;;;;;5110831;28;19908;-76
2021/06/28 10:11:24;;;;;;;;;;;;;;;;;;5114294;28;19930;-76
2021/06/28 10:13:50;;;;;;;;;;;;;;;;;;5113807;28;19912;-72
2021/06/28 10:16:19;;;;;;;;;;;;;;;;;;5111118;28;19955;-80
2021/06/28 10:18:46;;;;;;;;;;;;;;;;;;5111114;27;20278;-80
2021/06/28 10:21:12;;;;;;;;;;;;;;;;;;5111411;28;19924;-75
2021/06/28 10:23:37;;;;;;;;;;;;;;;;;;5117493;27;19914;-75
2021/06/28 10:26:03;;;;;;;;;;;;;;;;;;5114947;27;19958;-75
2021/06/28 10:28:29;;;;;;;;;;;;;;;;;;5116247;27;20239;-74
2021/06/28 10:30:55;;;;;;;;;;;;;;;;;;5124185;27;19922;-74
2021/06/28 10:33:23;;;;;;;;;;;;;;;;;;5111345;27;19912;-78
2021/06/28 10:35:48;;;;;;;;;;;;;;;;;;5115016;27;19908;-70
2021/06/28 10:38:14;;;;;;;;;;;;;;;;;;5116902;27;19915;-66
2021/06/28 10:40:40;;;;;;;;;;;;;;;;;;5115376;27;19938;-67
2021/06/28 10:43:06;;;;;;;;;;;;;;;;;;5115301;27;19956;-68
2021/06/28 10:45:32;;;;;;;;;;;;;;;;;;5114342;27;19918;-68
2021/06/28 10:47:58;;;;;;;;;;;;;;;;;;5113463;27;19912;-70
2021/06/28 10:50:24;;;;;;;;;;;;;;;;;;5117653;27;19911;-70
2021/06/28 10:52:50;;;;;;;;;;;;;;;;;;5114576;27;19912;-70
2021/06/28 10:55:16;;;;;;;;;;;;;;;;;;5112941;27;19950;-71
2021/06/28 10:57:42;;;;;;;;;;;;;;;;;;5108895;27;19951;-70
2021/06/28 11:00:08;;;;;;;;;;;;;;;;;;5125039;27;19920;-70
2021/06/28 11:02:34;;;;;;;;;;;;;;;;;;5117563;27;20004;-70
2021/06/28 11:04:59;;;;;;;;;;;;;;;;;;5113320;27;19962;-70
2021/06/28 11:07:25;;;;;;;;;;;;;;;;;;5107207;27;19934;-70
2021/06/28 11:09:51;;;;;;;;;;;;;;;;;;5109147;27;19920;-67
2021/06/28 11:12:23;;;;;;;;;;;;;;;;;;5110714;27;20340;-65
2021/06/28 11:14:49;;;;;;;;;;;;;;;;;;5114008;27;19908;-67
2021/06/28 11:17:16;;;;;;;;;;;;;;;;;;5115325;27;19907;-67
2021/06/28 11:19:43;;;;;;;;;;;;;;;;;;5114708;27;20019;-69
2021/06/28 11:22:08;;;;;;;;;;;;;;;;;;5114913;27;19915;-68
2021/06/28 11:24:34;;;;;;;;;;;;;;;;;;5096286;27;19919;-68
2021/06/28 11:27:00;;;;;;;;;;;;;;;;;;5112067;27;20278;-67
2021/06/28 11:29:26;;;;;;;;;;;;;;;;;;5127396;27;19913;-66
2021/06/28 11:31:52;;;;;;;;;;;;;;;;;;5116038;27;20363;-68
2021/06/28 11:34:18;;;;;;;;;;;;;;;;;;5114522;27;19920;-68
2021/06/28 11:36:44;;;;;;;;;;;;;;;;;;5114745;27;20389;-68
2021/06/28 11:39:10;;;;;;;;;;;;;;;;;;5110346;28;19916;-67
2021/06/28 11:41:36;;;;;;;;;;;;;;;;;;5118002;27;19915;-68
2021/06/28 11:44:02;;;;;;;;;;;;;;;;;;5114542;27;19915;-67
2021/06/28 11:46:28;;;;;;;;;;;;;;;;;;5114084;27;19964;-67
2021/06/28 11:48:54;;;;;;;;;;;;;;;;;;5114458;27;20286;-67
2021/06/28 11:51:20;;;;;;;;;;;;;;;;;;5111777;27;19912;-68
2021/06/28 11:53:46;;;;;;;;;;;;;;;;;;5114866;27;19908;-67
2021/06/28 11:56:21;;;;;;;;;;;;;;;;;;5114070;27;19908;-67
2021/06/28 11:58:47;;;;;;;;;;;;;;;;;;5119002;27;19911;-68
2021/06/28 12:01:13;;;;;;;;;;;;;;;;;;5120803;27;20365;-68
2021/06/28 12:03:38;;;;;;;;;;;;;;;;;;5114145;27;19911;-68
2021/06/28 12:06:04;;;;;;;;;;;;;;;;;;5110805;27;20252;-68
2021/06/28 12:08:30;;;;;;;;;;;;;;;;;;5116883;27;20271;-67
2021/06/28 12:10:56;;;;;;;;;;;;;;;;;;5113376;27;19920;-67
2021/06/28 12:13:22;;;;;;;;;;;;;;;;;;5115216;27;20446;-67
2021/06/28 12:15:48;;;;;;;;;;;;;;;;;;5114162;27;19999;-67
2021/06/28 12:18:14;;;;;;;;;;;;;;;;;;5110537;27;20034;-67
2021/06/28 12:20:40;;;;;;;;;;;;;;;;;;5115909;27;19960;-65
2021/06/28 12:23:05;;;;;;;;;;;;;;;;;;5115724;27;20350;-66
2021/06/28 12:25:31;;;;;;;;;;;;;;;;;;5113714;27;19911;-67
2021/06/28 12:27:57;;;;;;;;;;;;;;;;;;5111234;27;20366;-66
2021/06/28 12:30:23;;;;;;;;;;;;;;;;;;5125093;27;20007;-66
2021/06/28 12:32:52;;;;;;;;;;;;;;;;;;5114135;27;19933;-67
2021/06/28 12:35:19;;;;;;;;;;;;;;;;;;5114674;27;19953;-66
2021/06/28 12:37:47;;;;;;;;;;;;;;;;;;5113793;27;19912;-66
2021/06/28 12:40:13;;;;;;;;;;;;;;;;;;5113231;27;19920;-66
2021/06/28 12:42:39;;;;;;;;;;;;;;;;;;5112462;27;19968;-66
2021/06/28 12:45:05;;;;;;;;;;;;;;;;;;5109955;27;19972;-66
2021/06/28 12:47:31;;;;;;;;;;;;;;;;;;5115985;27;20540;-65
2021/06/28 12:49:58;;;;;;;;;;;;;;;;;;5113361;27;19969;-65
2021/06/28 12:52:24;;;;;;;;;;;;;;;;;;5113198;27;19919;-65
2021/06/28 12:54:50;;;;;;;;;;;;;;;;;;5113167;27;19911;-65
2021/06/28 12:57:16;;;;;;;;;;;;;;;;;;5090557;28;19955;-64
2021/06/28 12:59:42;;;;;;;;;;;;;;;;;;5128236;27;19919;-63
2021/06/28 13:02:07;;;;;;;;;;;;;;;;;;5113477;28;19950;-65
2021/06/28 13:04:33;;;;;;;;;;;;;;;;;;5113260;27;19969;-65
2021/06/28 13:07:00;;;;;;;;;;;;;;;;;;5113420;27;19980;-64
2021/06/28 13:09:26;;;;;;;;;;;;;;;;;;5110306;28;19920;-66
2021/06/28 13:11:52;;;;;;;;;;;;;;;;;;5112840;28;20428;-65
2021/06/28 13:14:18;;;;;;;;;;;;;;;;;;5115598;27;19988;-66
2021/06/28 13:19:09;;;;;;;;;;;;;;;;;;5113095;28;19922;-68
2021/06/28 13:21:35;;;;;;;;;;;;;;;;;;5113715;28;20414;-68
2021/06/28 13:24:01;;;;;;;;;;;;;;;;;;5109617;28;20310;-68
2021/06/28 13:26:27;;;;;;;;;;;;;;;;;;5129748;28;19930;-68
2021/06/28 13:28:53;;;;;;;;;;;;;;;;;;5119918;28;19926;-69
2021/06/28 13:31:20;;;;;;;;;;;;;;;;;;5119007;28;19912;-68
2021/06/28 13:33:45;;;;;;;;;;;;;;;;;;5113001;28;20001;-68
2021/06/28 13:36:12;;;;;;;;;;;;;;;;;;5110065;28;19955;-69
2021/06/28 13:38:38;;;;;;;;;;;;;;;;;;5115673;28;19908;-68
2021/06/28 13:41:08;;;;;;;;;;;;;;;;;;5112857;28;20361;-68
2021/06/28 13:43:33;;;;;;;;;;;;;;;;;;5112679;28;19963;-68
2021/06/28 13:45:59;;;;;;;;;;;;;;;;;;5112608;28;19965;-69
2021/06/28 13:48:25;;;;;;;;;;;;;;;;;;5091797;28;19925;-68
2021/06/28 13:50:51;;;;;;;;;;;;;;;;;;5113038;28;20223;-67
2021/06/28 13:53:17;;;;;;;;;;;;;;;;;;5113845;28;19907;-68
2021/06/28 13:55:43;;;;;;;;;;;;;;;;;;5115245;27;20362;-68
2021/06/28 13:58:10;;;;;;;;;;;;;;;;;;5115986;27;19915;-68
2021/06/28 14:00:36;;;;;;;;;;;;;;;;;;5108738;27;19929;-68
2021/06/28 14:03:02;;;;;;;;;;;;;;;;;;5113790;27;20007;-68
2021/06/28 14:05:28;;;;;;;;;;;;;;;;;;5118950;27;19934;-68
2021/06/28 14:07:54;;;;;;;;;;;;;;;;;;5116209;27;19916;-68
2021/06/28 14:10:20;;;;;;;;;;;;;;;;;;5115414;27;20064;-68
2021/06/28 14:12:46;;;;;;;;;;;;;;;;;;5118150;27;19942;-68
2021/06/28 14:15:11;;;;;;;;;;;;;;;;;;5111953;28;20445;-68
2021/06/28 14:17:37;;;;;;;;;;;;;;;;;;5119095;27;19908;-68
2021/06/28 14:20:03;;;;;;;;;;;;;;;;;;5115926;27;20406;-67
2021/06/28 14:22:32;;;;;;;;;;;;;;;;;;5115924;27;20264;-67
2021/06/28 14:24:58;;;;;;;;;;;;;;;;;;5112064;27;20401;-68
2021/06/28 14:27:24;;;;;;;;;;;;;;;;;;5111169;28;19916;-67
2021/06/28 14:29:50;;;;;;;;;;;;;;;;;;5130345;27;19908;-68
2021/06/28 14:32:16;;;;;;;;;;;;;;;;;;5116983;27;20022;-67
2021/06/28 14:34:42;;;;;;;;;;;;;;;;;;5115373;27;19949;-68
2021/06/28 14:37:08;;;;;;;;;;;;;;;;;;5115213;27;19912;-68
2021/06/28 14:39:34;;;;;;;;;;;;;;;;;;5114986;27;19923;-68
2021/06/28 14:42:00;;;;;;;;;;;;;;;;;;5113779;27;19927;-67
2021/06/28 14:44:26;;;;;;;;;;;;;;;;;;5118046;27;20320;-67
2021/06/28 14:46:53;;;;;;;;;;;;;;;;;;5114695;27;20026;-67
2021/06/28 14:49:19;;;;;;;;;;;;;;;;;;5118711;27;19919;-67
2021/06/28 14:51:45;;;;;;;;;;;;;;;;;;5126462;27;19911;-66
2021/06/28 14:54:11;;;;;;;;;;;;;;;;;;5111586;28;19919;-67
2021/06/28 14:56:37;;;;;;;;;;;;;;;;;;5117891;27;19961;-66
2021/06/28 14:59:03;;;;;;;;;;;;;;;;;;5121662;27;19911;-68
2021/06/28 15:01:29;;;;;;;;;;;;;;;;;;5120012;27;20340;-66
2021/06/28 15:03:55;;;;;;;;;;;;;;;;;;5115080;27;19911;-66
2021/06/28 15:06:20;;;;;;;;;;;;;;;;;;5111182;27;20257;-67
2021/06/28 15:08:46;;;;;;;;;;;;;;;;;;5115280;27;20314;-65
2021/06/28 15:11:12;;;;;;;;;;;;;;;;;;5115936;27;19920;-65
2021/06/28 15:13:38;;;;;;;;;;;;;;;;;;5117152;27;19916;-65
2021/06/28 15:16:04;;;;;;;;;;;;;;;;;;5114535;27;20374;-65
2021/06/28 15:18:30;;;;;;;;;;;;;;;;;;5112677;27;20295;-65
2021/06/28 15:20:56;;;;;;;;;;;;;;;;;;5114173;27;19974;-65
2021/06/28 15:23:22;;;;;;;;;;;;;;;;;;5116084;27;20429;-64
2021/06/28 15:25:48;;;;;;;;;;;;;;;;;;5114760;27;19922;-67
2021/06/28 15:28:14;;;;;;;;;;;;;;;;;;5113821;27;19915;-67
2021/06/28 15:30:39;;;;;;;;;;;;;;;;;;5125990;27;19937;-66
2021/06/28 15:33:05;;;;;;;;;;;;;;;;;;5111464;27;19916;-67
2021/06/28 15:35:31;;;;;;;;;;;;;;;;;;5118268;27;19960;-66
2021/06/28 15:37:57;;;;;;;;;;;;;;;;;;5113681;27;19912;-66
2021/06/28 15:40:23;;;;;;;;;;;;;;;;;;5113965;27;19926;-67
2021/06/28 15:42:49;;;;;;;;;;;;;;;;;;5114172;27;19937;-67
2021/06/28 15:45:15;;;;;;;;;;;;;;;;;;5110343;28;19927;-66
2021/06/28 15:47:41;;;;;;;;;;;;;;;;;;5097841;28;19951;-66
2021/06/28 15:50:07;;;;;;;;;;;;;;;;;;5114307;27;19924;-66
2021/06/28 15:52:33;;;;;;;;;;;;;;;;;;5114395;27;20252;-66
2021/06/28 15:54:59;;;;;;;;;;;;;;;;;;5114506;27;20359;-66
2021/06/28 15:57:25;;;;;;;;;;;;;;;;;;5109974;28;19962;-66
2021/06/28 15:59:51;;;;;;;;;;;;;;;;;;5128099;27;19944;-66
2021/06/28 16:02:17;;;;;;;;;;;;;;;;;;5115255;27;19955;-67
2021/06/28 16:04:43;;;;;;;;;;;;;;;;;;5114230;27;19916;-66
2021/06/28 16:07:09;;;;;;;;;;;;;;;;;;5113644;27;19911;-66
2021/06/28 16:09:34;;;;;;;;;;;;;;;;;;5111648;27;19927;-67
2021/06/28 16:12:00;;;;;;;;;;;;;;;;;;5112437;28;20014;-67
2021/06/28 16:14:29;;;;;;;;;;;;;;;;;;5117444;27;19908;-67
2021/06/28 16:16:55;;;;;;;;;;;;;;;;;;5112814;27;19911;-66
2021/06/28 16:19:20;;;;;;;;;;;;;;;;;;5112462;27;20483;-66
2021/06/28 16:21:46;;;;;;;;;;;;;;;;;;5113674;27;19908;-66
2021/06/28 16:24:12;;;;;;;;;;;;;;;;;;5108770;28;19912;-66
2021/06/28 16:26:38;;;;;;;;;;;;;;;;;;5116614;27;19911;-66
2021/06/28 16:29:04;;;;;;;;;;;;;;;;;;5101915;27;19911;-67
2021/06/28 16:31:30;;;;;;;;;;;;;;;;;;5117835;27;20436;-66
2021/06/28 16:33:56;;;;;;;;;;;;;;;;;;5112852;27;19922;-66
2021/06/28 16:36:22;;;;;;;;;;;;;;;;;;5111156;27;20374;-66
2021/06/28 16:38:48;;;;;;;;;;;;;;;;;;5113964;27;19915;-66